sensor_id;sensor_type;location;lat;lon;timestamp;pressure;altitude;pressure_sealevel;temperature;humidity
22257;BME280;11297;42.686;23.374;2023-03-26T00:01:41;94504.13;;;12.90;60.48
22257;BME280;11297;42.686;23.374;2023-03-26T00:04:11;94508.94;;;12.89;60.33
22257;BME280;11297;42.686;23.374;2023-03-26T00:06:37;94515.44;;;12.83;60.30
22257;BME280;11297;42.686;23.374;2023-03-26T00:09:06;94503.03;;;12.80;60.28
22257;BME280;11297;42.686;23.374;2023-03-26T00:11:32;94505.63;;;12.80;60.30
22257;BME280;11297;42.686;23.374;2023-03-26T00:13:58;94514.59;;;12.58;60.96
22257;BME280;11297;42.686;23.374;2023-03-26T00:16:29;94504.50;;;12.57;61.14
22257;BME280;11297;42.686;23.374;2023-03-26T00:18:55;94480.84;;;12.50;61.02
22257;BME280;11297;42.686;23.374;2023-03-26T00:21:23;94492.25;;;12.57;61.14
22257;BME280;11297;42.686;23.374;2023-03-26T00:23:53;94485.94;;;12.58;61.24
22257;BME280;11297;42.686;23.374;2023-03-26T00:26:20;94486.69;;;12.47;61.21
22257;BME280;11297;42.686;23.374;2023-03-26T00:28:45;94483.56;;;12.65;60.86
22257;BME280;11297;42.686;23.374;2023-03-26T00:31:12;94485.19;;;12.70;60.30
22257;BME280;11297;42.686;23.374;2023-03-26T00:33:40;94479.97;;;12.70;60.46
22257;BME280;11297;42.686;23.374;2023-03-26T00:36:08;94471.84;;;12.71;60.47
22257;BME280;11297;42.686;23.374;2023-03-26T00:38:35;94475.41;;;12.67;60.36
22257;BME280;11297;42.686;23.374;2023-03-26T00:41:04;94481.28;;;12.76;60.32
22257;BME280;11297;42.686;23.374;2023-03-26T00:43:32;94478.44;;;12.69;60.15
22257;BME280;11297;42.686;23.374;2023-03-26T00:46:02;94479.00;;;12.62;60.20
22257;BME280;11297;42.686;23.374;2023-03-26T00:48:28;94489.53;;;12.66;60.35
22257;BME280;11297;42.686;23.374;2023-03-26T00:50:55;94482.56;;;12.58;60.23
22257;BME280;11297;42.686;23.374;2023-03-26T00:53:21;94477.59;;;12.53;60.37
22257;BME280;11297;42.686;23.374;2023-03-26T00:55:47;94487.03;;;12.57;60.91
22257;BME280;11297;42.686;23.374;2023-03-26T00:58:13;94475.38;;;12.43;60.57
22257;BME280;11297;42.686;23.374;2023-03-26T01:00:52;94477.34;;;12.46;60.66
22257;BME280;11297;42.686;23.374;2023-03-26T01:03:23;94478.56;;;12.48;60.65
22257;BME280;11297;42.686;23.374;2023-03-26T01:05:51;94478.22;;;12.50;60.57
22257;BME280;11297;42.686;23.374;2023-03-26T01:10:55;94472.22;;;12.38;60.07
22257;BME280;11297;42.686;23.374;2023-03-26T01:13:29;94482.75;;;12.41;59.58
22257;BME280;11297;42.686;23.374;2023-03-26T01:15:56;94494.50;;;12.47;59.49
22257;BME280;11297;42.686;23.374;2023-03-26T01:18:23;94489.06;;;12.52;59.13
22257;BME280;11297;42.686;23.374;2023-03-26T01:20:54;94482.97;;;12.48;58.90
22257;BME280;11297;42.686;23.374;2023-03-26T01:23:25;94486.78;;;12.50;59.09
22257;BME280;11297;42.686;23.374;2023-03-26T01:26:02;94497.44;;;12.45;59.14
22257;BME280;11297;42.686;23.374;2023-03-26T01:28:32;94482.94;;;12.36;59.12
22257;BME280;11297;42.686;23.374;2023-03-26T01:34:16;94513.50;;;12.47;59.38
22257;BME280;11297;42.686;23.374;2023-03-26T01:37:24;94505.31;;;12.37;59.53
22257;BME280;11297;42.686;23.374;2023-03-26T01:40:03;94505.66;;;12.47;59.64
22257;BME280;11297;42.686;23.374;2023-03-26T01:42:43;94510.56;;;12.49;59.68
22257;BME280;11297;42.686;23.374;2023-03-26T01:45:20;94509.06;;;12.60;59.56
22257;BME280;11297;42.686;23.374;2023-03-26T01:47:47;94508.63;;;12.58;59.16
22257;BME280;11297;42.686;23.374;2023-03-26T01:50:13;94506.63;;;12.43;60.08
22257;BME280;11297;42.686;23.374;2023-03-26T01:52:38;94522.50;;;12.50;59.68
22257;BME280;11297;42.686;23.374;2023-03-26T01:55:06;94521.63;;;12.46;60.20
22257;BME280;11297;42.686;23.374;2023-03-26T01:57:48;94525.63;;;12.43;60.85
22257;BME280;11297;42.686;23.374;2023-03-26T02:00:51;94502.13;;;12.20;60.99
22257;BME280;11297;42.686;23.374;2023-03-26T02:03:35;94519.69;;;12.23;61.38
22257;BME280;11297;42.686;23.374;2023-03-26T02:06:14;94521.16;;;12.32;61.45
22257;BME280;11297;42.686;23.374;2023-03-26T02:08:46;94505.69;;;12.15;61.64
22257;BME280;11297;42.686;23.374;2023-03-26T02:11:15;94509.75;;;12.25;61.43
22257;BME280;11297;42.686;23.374;2023-03-26T02:13:42;94516.34;;;12.22;61.79
22257;BME280;11297;42.686;23.374;2023-03-26T02:16:12;94503.72;;;12.12;61.88
22257;BME280;11297;42.686;23.374;2023-03-26T02:18:44;94517.66;;;12.28;61.87
22257;BME280;11297;42.686;23.374;2023-03-26T02:21:13;94505.56;;;12.12;62.02
22257;BME280;11297;42.686;23.374;2023-03-26T02:23:42;94521.88;;;12.21;62.22
22257;BME280;11297;42.686;23.374;2023-03-26T02:26:11;94512.41;;;12.16;62.52
22257;BME280;11297;42.686;23.374;2023-03-26T02:28:37;94471.22;;;11.86;62.70
22257;BME280;11297;42.686;23.374;2023-03-26T02:31:03;94494.03;;;12.01;62.80
22257;BME280;11297;42.686;23.374;2023-03-26T02:33:30;94514.88;;;12.01;63.07
22257;BME280;11297;42.686;23.374;2023-03-26T02:35:57;94488.00;;;11.89;63.08
22257;BME280;11297;42.686;23.374;2023-03-26T02:38:29;94512.06;;;11.86;62.95
22257;BME280;11297;42.686;23.374;2023-03-26T02:41:00;94517.03;;;11.79;63.82
22257;BME280;11297;42.686;23.374;2023-03-26T02:43:26;94521.34;;;11.75;64.11
22257;BME280;11297;42.686;23.374;2023-03-26T02:45:51;94519.19;;;11.56;64.81
22257;BME280;11297;42.686;23.374;2023-03-26T02:48:17;94521.84;;;11.48;65.35
22257;BME280;11297;42.686;23.374;2023-03-26T02:50:44;94508.09;;;11.39;65.08
22257;BME280;11297;42.686;23.374;2023-03-26T02:53:10;94524.59;;;11.43;65.79
22257;BME280;11297;42.686;23.374;2023-03-26T02:55:36;94532.69;;;11.50;65.58
22257;BME280;11297;42.686;23.374;2023-03-26T02:58:02;94542.50;;;11.44;65.91
22257;BME280;11297;42.686;23.374;2023-03-26T03:00:27;94553.97;;;11.43;65.93
22257;BME280;11297;42.686;23.374;2023-03-26T03:02:53;94552.44;;;11.43;66.67
22257;BME280;11297;42.686;23.374;2023-03-26T03:05:22;94550.59;;;11.43;66.75
22257;BME280;11297;42.686;23.374;2023-03-26T03:07:51;94548.31;;;11.42;66.89
22257;BME280;11297;42.686;23.374;2023-03-26T03:10:17;94554.47;;;11.37;66.69
22257;BME280;11297;42.686;23.374;2023-03-26T03:12:46;94554.94;;;11.31;66.35
22257;BME280;11297;42.686;23.374;2023-03-26T03:15:12;94555.41;;;11.33;66.55
22257;BME280;11297;42.686;23.374;2023-03-26T03:17:38;94557.50;;;11.39;66.27
22257;BME280;11297;42.686;23.374;2023-03-26T03:20:05;94567.28;;;11.42;66.32
22257;BME280;11297;42.686;23.374;2023-03-26T03:22:34;94561.63;;;11.40;65.63
22257;BME280;11297;42.686;23.374;2023-03-26T03:24:59;94558.41;;;11.43;65.77
22257;BME280;11297;42.686;23.374;2023-03-26T03:27:25;94566.84;;;11.40;65.69
22257;BME280;11297;42.686;23.374;2023-03-26T03:29:51;94561.16;;;11.38;65.67
22257;BME280;11297;42.686;23.374;2023-03-26T03:32:22;94554.38;;;11.25;65.72
22257;BME280;11297;42.686;23.374;2023-03-26T03:34:48;94569.19;;;11.25;66.06
22257;BME280;11297;42.686;23.374;2023-03-26T03:37:17;94583.75;;;11.17;66.16
22257;BME280;11297;42.686;23.374;2023-03-26T03:39:43;94571.56;;;11.09;66.41
22257;BME280;11297;42.686;23.374;2023-03-26T03:42:09;94568.78;;;11.14;66.36
22257;BME280;11297;42.686;23.374;2023-03-26T03:44:35;94570.31;;;11.15;66.29
22257;BME280;11297;42.686;23.374;2023-03-26T03:47:01;94560.84;;;11.19;65.91
22257;BME280;11297;42.686;23.374;2023-03-26T03:49:27;94552.41;;;11.22;65.47
22257;BME280;11297;42.686;23.374;2023-03-26T03:51:52;94564.09;;;11.37;65.18
22257;BME280;11297;42.686;23.374;2023-03-26T03:54:18;94559.81;;;11.32;64.59
22257;BME280;11297;42.686;23.374;2023-03-26T03:56:43;94564.38;;;11.15;65.26
22257;BME280;11297;42.686;23.374;2023-03-26T03:59:13;94559.63;;;11.08;65.75
22257;BME280;11297;42.686;23.374;2023-03-26T04:01:39;94568.69;;;11.02;66.24
22257;BME280;11297;42.686;23.374;2023-03-26T04:04:07;94582.88;;;11.13;65.92
22257;BME280;11297;42.686;23.374;2023-03-26T04:06:33;94579.69;;;11.08;66.38
22257;BME280;11297;42.686;23.374;2023-03-26T04:08:58;94541.59;;;10.75;66.59
22257;BME280;11297;42.686;23.374;2023-03-26T04:11:24;94591.63;;;11.00;66.90
22257;BME280;11297;42.686;23.374;2023-03-26T04:13:49;94589.03;;;11.00;67.20
22257;BME280;11297;42.686;23.374;2023-03-26T04:16:15;94604.75;;;11.04;66.72
22257;BME280;11297;42.686;23.374;2023-03-26T04:18:42;94606.63;;;10.95;67.04
22257;BME280;11297;42.686;23.374;2023-03-26T04:21:09;94619.59;;;11.03;67.02
22257;BME280;11297;42.686;23.374;2023-03-26T04:23:37;94594.13;;;10.89;67.24
22257;BME280;11297;42.686;23.374;2023-03-26T04:26:05;94635.19;;;11.12;67.06
22257;BME280;11297;42.686;23.374;2023-03-26T04:28:51;94644.03;;;11.19;66.85
22257;BME280;11297;42.686;23.374;2023-03-26T04:31:22;94653.38;;;11.12;67.02
22257;BME280;11297;42.686;23.374;2023-03-26T04:33:50;94651.22;;;11.05;67.07
22257;BME280;11297;42.686;23.374;2023-03-26T04:36:23;94656.09;;;11.24;66.94
22257;BME280;11297;42.686;23.374;2023-03-26T04:38:52;94651.34;;;11.17;66.51
22257;BME280;11297;42.686;23.374;2023-03-26T04:41:17;94661.72;;;11.34;66.59
22257;BME280;11297;42.686;23.374;2023-03-26T04:43:43;94666.00;;;11.30;66.47
22257;BME280;11297;42.686;23.374;2023-03-26T04:46:18;94661.84;;;11.29;66.29
22257;BME280;11297;42.686;23.374;2023-03-26T04:48:46;94669.00;;;11.41;65.92
22257;BME280;11297;42.686;23.374;2023-03-26T04:51:13;94651.16;;;11.31;65.96
22257;BME280;11297;42.686;23.374;2023-03-26T04:54:00;94669.28;;;11.56;65.22
22257;BME280;11297;42.686;23.374;2023-03-26T04:58:57;94674.16;;;11.57;64.43
22257;BME280;11297;42.686;23.374;2023-03-26T05:01:24;94649.88;;;11.53;63.71
22257;BME280;11297;42.686;23.374;2023-03-26T05:03:52;94635.66;;;11.51;63.63
22257;BME280;11297;42.686;23.374;2023-03-26T05:06:18;94663.84;;;11.69;63.14
22257;BME280;11297;42.686;23.374;2023-03-26T05:08:43;94654.38;;;11.65;62.90
22257;BME280;11297;42.686;23.374;2023-03-26T05:11:09;94658.19;;;11.76;62.54
22257;BME280;11297;42.686;23.374;2023-03-26T05:13:36;94660.72;;;11.84;62.32
22257;BME280;11297;42.686;23.374;2023-03-26T05:16:01;94662.53;;;11.92;62.01
22257;BME280;11297;42.686;23.374;2023-03-26T05:18:26;94684.66;;;12.27;60.93
22257;BME280;11297;42.686;23.374;2023-03-26T05:20:52;94677.59;;;12.47;60.37
22257;BME280;11297;42.686;23.374;2023-03-26T05:23:17;94674.84;;;12.64;59.62
22257;BME280;11297;42.686;23.374;2023-03-26T05:25:43;94671.19;;;12.65;59.06
22257;BME280;11297;42.686;23.374;2023-03-26T05:28:09;94675.81;;;12.60;59.01
22257;BME280;11297;42.686;23.374;2023-03-26T05:30:35;94682.41;;;12.78;58.62
22257;BME280;11297;42.686;23.374;2023-03-26T05:33:00;94677.50;;;12.76;58.52
22257;BME280;11297;42.686;23.374;2023-03-26T05:35:27;94677.09;;;12.94;58.18
22257;BME280;11297;42.686;23.374;2023-03-26T05:37:52;94675.22;;;12.75;58.70
22257;BME280;11297;42.686;23.374;2023-03-26T05:40:18;94682.72;;;12.76;59.01
22257;BME280;11297;42.686;23.374;2023-03-26T05:42:44;94686.50;;;12.67;59.00
22257;BME280;11297;42.686;23.374;2023-03-26T05:45:11;94676.72;;;12.64;58.86
22257;BME280;11297;42.686;23.374;2023-03-26T05:47:37;94695.59;;;12.61;59.66
22257;BME280;11297;42.686;23.374;2023-03-26T05:50:04;94691.91;;;12.62;59.50
22257;BME280;11297;42.686;23.374;2023-03-26T05:52:30;94696.03;;;12.42;59.91
22257;BME280;11297;42.686;23.374;2023-03-26T05:54:55;94695.50;;;12.29;60.40
22257;BME280;11297;42.686;23.374;2023-03-26T05:57:21;94685.53;;;12.10;60.60
22257;BME280;11297;42.686;23.374;2023-03-26T05:59:48;94686.06;;;11.95;60.85
22257;BME280;11297;42.686;23.374;2023-03-26T06:02:13;94686.66;;;12.01;60.87
22257;BME280;11297;42.686;23.374;2023-03-26T06:04:39;94684.63;;;12.06;60.50
22257;BME280;11297;42.686;23.374;2023-03-26T06:07:06;94673.13;;;12.07;60.75
22257;BME280;11297;42.686;23.374;2023-03-26T06:09:40;94685.94;;;12.41;59.70
22257;BME280;11297;42.686;23.374;2023-03-26T06:12:07;94687.72;;;12.69;58.74
22257;BME280;11297;42.686;23.374;2023-03-26T06:14:33;94690.22;;;12.98;58.16
22257;BME280;11297;42.686;23.374;2023-03-26T06:16:58;94635.88;;;12.88;57.73
22257;BME280;11297;42.686;23.374;2023-03-26T06:19:24;94682.31;;;13.62;55.46
22257;BME280;11297;42.686;23.374;2023-03-26T06:21:49;94689.31;;;13.94;54.41
22257;BME280;11297;42.686;23.374;2023-03-26T06:24:15;94679.28;;;14.20;53.04
22257;BME280;11297;42.686;23.374;2023-03-26T06:26:41;94681.91;;;14.08;52.23
22257;BME280;11297;42.686;23.374;2023-03-26T06:29:07;94684.19;;;13.97;52.64
22257;BME280;11297;42.686;23.374;2023-03-26T06:31:33;94687.34;;;14.15;52.58
22257;BME280;11297;42.686;23.374;2023-03-26T06:33:59;94680.69;;;14.17;52.66
22257;BME280;11297;42.686;23.374;2023-03-26T06:36:24;94681.63;;;14.36;52.67
22257;BME280;11297;42.686;23.374;2023-03-26T06:38:49;94683.53;;;14.63;52.42
22257;BME280;11297;42.686;23.374;2023-03-26T06:41:15;94684.81;;;14.69;51.10
22257;BME280;11297;42.686;23.374;2023-03-26T06:43:41;94658.69;;;14.69;51.21
22257;BME280;11297;42.686;23.374;2023-03-26T06:46:06;94682.13;;;14.93;51.12
22257;BME280;11297;42.686;23.374;2023-03-26T06:48:31;94680.22;;;15.48;56.75
22257;BME280;11297;42.686;23.374;2023-03-26T06:50:57;94687.81;;;15.83;52.09
22257;BME280;11297;42.686;23.374;2023-03-26T06:53:23;94690.94;;;16.04;50.88
22257;BME280;11297;42.686;23.374;2023-03-26T06:55:48;94689.78;;;16.36;54.78
22257;BME280;11297;42.686;23.374;2023-03-26T06:58:14;94695.31;;;16.65;50.73
22257;BME280;11297;42.686;23.374;2023-03-26T07:00:40;94706.56;;;16.84;47.56
22257;BME280;11297;42.686;23.374;2023-03-26T07:03:06;94716.78;;;17.08;46.81
22257;BME280;11297;42.686;23.374;2023-03-26T07:05:32;94712.91;;;17.40;50.21
22257;BME280;11297;42.686;23.374;2023-03-26T07:07:58;94714.75;;;17.58;46.94
22257;BME280;11297;42.686;23.374;2023-03-26T07:10:23;94706.47;;;17.78;48.26
22257;BME280;11297;42.686;23.374;2023-03-26T07:12:49;94673.25;;;17.45;43.98
22257;BME280;11297;42.686;23.374;2023-03-26T07:15:14;94698.03;;;17.92;50.34
22257;BME280;11297;42.686;23.374;2023-03-26T07:17:40;94703.78;;;17.97;50.11
22257;BME280;11297;42.686;23.374;2023-03-26T07:20:06;94693.25;;;17.97;49.64
22257;BME280;11297;42.686;23.374;2023-03-26T07:22:32;94693.81;;;18.10;46.32
22257;BME280;11297;42.686;23.374;2023-03-26T07:24:58;94696.81;;;17.86;46.79
22257;BME280;11297;42.686;23.374;2023-03-26T07:36:16;94686.44;;;18.99;48.73
22257;BME280;11297;42.686;23.374;2023-03-26T07:38:57;94681.94;;;19.72;47.47
22257;BME280;11297;42.686;23.374;2023-03-26T07:42:14;94680.06;;;20.15;46.88
22257;BME280;11297;42.686;23.374;2023-03-26T07:47:20;94680.88;;;19.80;38.82
22257;BME280;11297;42.686;23.374;2023-03-26T07:49:53;94680.03;;;19.69;43.10
22257;BME280;11297;42.686;23.374;2023-03-26T07:52:20;94677.41;;;19.69;40.22
22257;BME280;11297;42.686;23.374;2023-03-26T07:54:46;94676.56;;;19.25;40.54
22257;BME280;11297;42.686;23.374;2023-03-26T08:10:42;94683.00;;;19.24;42.28
22257;BME280;11297;42.686;23.374;2023-03-26T08:16:17;94673.28;;;19.32;38.23
22257;BME280;11297;42.686;23.374;2023-03-26T08:19:10;94665.16;;;19.87;39.11
22257;BME280;11297;42.686;23.374;2023-03-26T08:21:48;94670.97;;;19.66;39.10
22257;BME280;11297;42.686;23.374;2023-03-26T08:24:29;94673.59;;;20.06;42.72
22257;BME280;11297;42.686;23.374;2023-03-26T08:27:07;94672.94;;;20.19;49.25
22257;BME280;11297;42.686;23.374;2023-03-26T08:32:17;94678.34;;;21.18;42.36
22257;BME280;11297;42.686;23.374;2023-03-26T08:34:44;94678.00;;;21.33;41.63
22257;BME280;11297;42.686;23.374;2023-03-26T08:37:10;94665.94;;;21.36;43.55
22257;BME280;11297;42.686;23.374;2023-03-26T08:39:36;94678.13;;;21.71;40.36
22257;BME280;11297;42.686;23.374;2023-03-26T08:50:30;94679.91;;;21.33;41.45
22257;BME280;11297;42.686;23.374;2023-03-26T08:53:20;94670.16;;;21.51;37.35
22257;BME280;11297;42.686;23.374;2023-03-26T08:56:08;94668.53;;;21.18;36.44
22257;BME280;11297;42.686;23.374;2023-03-26T09:01:43;94668.63;;;21.46;34.98
22257;BME280;11297;42.686;23.374;2023-03-26T09:10:18;94666.41;;;22.38;43.26
22257;BME280;11297;42.686;23.374;2023-03-26T09:18:40;94670.19;;;21.96;34.27
22257;BME280;11297;42.686;23.374;2023-03-26T09:21:17;94649.78;;;21.86;43.32
22257;BME280;11297;42.686;23.374;2023-03-26T09:46:27;94628.91;;;22.54;32.90
22257;BME280;11297;42.686;23.374;2023-03-26T09:57:58;94608.16;;;22.14;31.84
22257;BME280;11297;42.686;23.374;2023-03-26T10:00:43;94602.75;;;22.73;40.35
22257;BME280;11297;42.686;23.374;2023-03-26T10:13:48;94592.69;;;22.16;35.50
22257;BME280;11297;42.686;23.374;2023-03-26T10:24:09;94582.09;;;22.30;36.60
22257;BME280;11297;42.686;23.374;2023-03-26T10:27:00;94571.50;;;22.09;34.91
22257;BME280;11297;42.686;23.374;2023-03-26T10:29:34;94577.84;;;22.50;33.77
22257;BME280;11297;42.686;23.374;2023-03-26T10:34:47;94560.50;;;22.35;31.23
22257;BME280;11297;42.686;23.374;2023-03-26T10:40:14;94552.56;;;23.16;37.06
22257;BME280;11297;42.686;23.374;2023-03-26T10:45:52;94539.97;;;22.66;28.48
22257;BME280;11297;42.686;23.374;2023-03-26T10:48:35;94431.41;;;21.74;28.29
22257;BME280;11297;42.686;23.374;2023-03-26T10:54:07;94540.56;;;21.78;27.66
22257;BME280;11297;42.686;23.374;2023-03-26T10:56:44;94524.72;;;21.47;27.86
22257;BME280;11297;42.686;23.374;2023-03-26T10:59:12;94503.19;;;21.28;28.13
22257;BME280;11297;42.686;23.374;2023-03-26T11:07:20;94476.47;;;19.96;28.87
22257;BME280;11297;42.686;23.374;2023-03-26T11:10:11;94403.03;;;19.31;28.88
22257;BME280;11297;42.686;23.374;2023-03-26T11:13:11;94523.84;;;19.86;28.98
22257;BME280;11297;42.686;23.374;2023-03-26T11:18:43;94524.69;;;19.93;29.23
22257;BME280;11297;42.686;23.374;2023-03-26T11:21:23;94515.50;;;19.77;29.24
22257;BME280;11297;42.686;23.374;2023-03-26T11:26:54;94531.88;;;19.46;29.12
22257;BME280;11297;42.686;23.374;2023-03-26T11:32:21;94472.94;;;19.15;28.22
22257;BME280;11297;42.686;23.374;2023-03-26T11:35:16;94496.44;;;19.40;28.41
22257;BME280;11297;42.686;23.374;2023-03-26T11:37:52;94482.22;;;19.48;27.95
22257;BME280;11297;42.686;23.374;2023-03-26T11:40:37;94495.38;;;19.48;28.87
22257;BME280;11297;42.686;23.374;2023-03-26T11:43:11;94462.69;;;19.06;28.61
22257;BME280;11297;42.686;23.374;2023-03-26T11:45:40;94482.28;;;19.09;29.40
22257;BME280;11297;42.686;23.374;2023-03-26T11:51:01;94451.56;;;18.83;29.42
22257;BME280;11297;42.686;23.374;2023-03-26T11:53:32;94463.00;;;19.01;29.15
22257;BME280;11297;42.686;23.374;2023-03-26T11:56:15;94436.34;;;19.03;28.63
22257;BME280;11297;42.686;23.374;2023-03-26T11:58:53;94428.03;;;19.01;28.97
22257;BME280;11297;42.686;23.374;2023-03-26T12:01:25;94448.47;;;19.14;28.83
22257;BME280;11297;42.686;23.374;2023-03-26T12:04:03;94432.25;;;19.09;28.48
22257;BME280;11297;42.686;23.374;2023-03-26T12:06:29;94427.41;;;19.17;28.20
22257;BME280;11297;42.686;23.374;2023-03-26T12:08:57;94435.75;;;19.23;27.34
22257;BME280;11297;42.686;23.374;2023-03-26T12:11:29;94420.53;;;19.03;28.32
22257;BME280;11297;42.686;23.374;2023-03-26T12:14:01;94422.63;;;18.83;28.36
22257;BME280;11297;42.686;23.374;2023-03-26T12:16:28;94390.81;;;18.56;28.50
22257;BME280;11297;42.686;23.374;2023-03-26T12:19:04;94421.44;;;18.77;29.42
22257;BME280;11297;42.686;23.374;2023-03-26T12:21:48;94396.13;;;18.59;27.75
22257;BME280;11297;42.686;23.374;2023-03-26T12:24:29;94401.19;;;18.81;27.97
22257;BME280;11297;42.686;23.374;2023-03-26T12:27:24;94409.06;;;18.81;27.95
22257;BME280;11297;42.686;23.374;2023-03-26T12:30:10;94342.53;;;18.38;27.69
22257;BME280;11297;42.686;23.374;2023-03-26T12:32:40;94392.94;;;18.86;28.61
22257;BME280;11297;42.686;23.374;2023-03-26T12:35:15;94382.03;;;18.84;26.63
22257;BME280;11297;42.686;23.374;2023-03-26T12:37:44;94373.28;;;18.73;26.99
22257;BME280;11297;42.686;23.374;2023-03-26T12:40:31;94368.38;;;18.72;26.83
22257;BME280;11297;42.686;23.374;2023-03-26T12:43:03;94385.03;;;18.86;26.93
22257;BME280;11297;42.686;23.374;2023-03-26T12:45:42;94351.41;;;18.66;27.22
22257;BME280;11297;42.686;23.374;2023-03-26T12:48:13;94383.78;;;18.70;27.10
22257;BME280;11297;42.686;23.374;2023-03-26T12:53:45;94369.09;;;18.66;26.26
22257;BME280;11297;42.686;23.374;2023-03-26T12:59:50;94329.38;;;18.34;23.48
22257;BME280;11297;42.686;23.374;2023-03-26T13:05:15;94351.06;;;18.67;24.33
22257;BME280;11297;42.686;23.374;2023-03-26T13:08:14;94355.09;;;18.55;23.73
22257;BME280;11297;42.686;23.374;2023-03-26T13:19:39;94334.88;;;18.62;23.24
22257;BME280;11297;42.686;23.374;2023-03-26T13:22:58;94340.94;;;18.69;23.11
22257;BME280;11297;42.686;23.374;2023-03-26T13:25:43;94334.88;;;18.66;22.63
22257;BME280;11297;42.686;23.374;2023-03-26T13:28:23;94334.94;;;18.72;22.59
22257;BME280;11297;42.686;23.374;2023-03-26T13:31:16;94353.69;;;18.67;22.51
22257;BME280;11297;42.686;23.374;2023-03-26T13:39:26;94333.19;;;18.44;23.12
22257;BME280;11297;42.686;23.374;2023-03-26T13:44:40;94337.06;;;18.53;24.12
22257;BME280;11297;42.686;23.374;2023-03-26T13:47:23;94340.41;;;18.50;24.64
22257;BME280;11297;42.686;23.374;2023-03-26T13:50:00;94324.66;;;18.54;24.79
22257;BME280;11297;42.686;23.374;2023-03-26T13:52:40;94323.63;;;18.65;24.03
22257;BME280;11297;42.686;23.374;2023-03-26T13:55:31;94323.69;;;18.75;25.07
22257;BME280;11297;42.686;23.374;2023-03-26T14:01:03;94340.94;;;18.73;24.17
22257;BME280;11297;42.686;23.374;2023-03-26T14:06:46;94313.47;;;18.67;23.44
22257;BME280;11297;42.686;23.374;2023-03-26T14:09:37;94319.44;;;18.61;23.41
22257;BME280;11297;42.686;23.374;2023-03-26T14:14:55;94306.59;;;18.56;22.70
22257;BME280;11297;42.686;23.374;2023-03-26T14:17:26;94308.56;;;18.62;21.70
22257;BME280;11297;42.686;23.374;2023-03-26T14:20:27;94273.88;;;18.50;21.74
22257;BME280;11297;42.686;23.374;2023-03-26T14:34:36;94296.81;;;18.53;22.35
22257;BME280;11297;42.686;23.374;2023-03-26T14:40:43;94294.91;;;18.50;23.48
22257;BME280;11297;42.686;23.374;2023-03-26T14:52:04;94283.84;;;18.77;24.82
22257;BME280;11297;42.686;23.374;2023-03-26T14:54:37;94294.31;;;18.70;25.27
22257;BME280;11297;42.686;23.374;2023-03-26T15:22:34;94304.78;;;18.60;23.02
22257;BME280;11297;42.686;23.374;2023-03-26T15:39:13;94300.06;;;18.32;24.45
22257;BME280;11297;42.686;23.374;2023-03-26T15:42:16;94298.19;;;18.33;24.57
22257;BME280;11297;42.686;23.374;2023-03-26T15:44:53;94304.91;;;18.30;24.68
22257;BME280;11297;42.686;23.374;2023-03-26T15:47:33;94298.84;;;18.23;24.25
22257;BME280;11297;42.686;23.374;2023-03-26T15:52:38;94297.81;;;18.31;24.32
22257;BME280;11297;42.686;23.374;2023-03-26T16:00:55;94306.41;;;18.28;25.54
22257;BME280;11297;42.686;23.374;2023-03-26T16:03:44;94304.31;;;18.08;26.22
22257;BME280;11297;42.686;23.374;2023-03-26T16:06:29;94283.94;;;17.98;29.05
22257;BME280;11297;42.686;23.374;2023-03-26T16:09:23;94297.72;;;18.21;26.68
22257;BME280;11297;42.686;23.374;2023-03-26T16:11:56;94299.84;;;18.12;26.93
22257;BME280;11297;42.686;23.374;2023-03-26T16:14:23;94299.91;;;18.15;27.35
22257;BME280;11297;42.686;23.374;2023-03-26T16:17:11;94265.75;;;17.79;26.67
22257;BME280;11297;42.686;23.374;2023-03-26T16:22:52;94311.00;;;17.98;26.71
22257;BME280;11297;42.686;23.374;2023-03-26T16:25:29;94295.03;;;17.77;27.24
22257;BME280;11297;42.686;23.374;2023-03-26T16:31:25;94233.78;;;17.34;27.60
22257;BME280;11297;42.686;23.374;2023-03-26T16:34:19;94323.28;;;17.87;26.95
22257;BME280;11297;42.686;23.374;2023-03-26T16:36:49;94318.38;;;17.86;28.17
22257;BME280;11297;42.686;23.374;2023-03-26T16:39:21;94322.16;;;17.88;27.46
22257;BME280;11297;42.686;23.374;2023-03-26T16:50:23;94336.47;;;17.91;27.52
22257;BME280;11297;42.686;23.374;2023-03-26T16:53:10;94330.03;;;17.88;27.81
22257;BME280;11297;42.686;23.374;2023-03-26T16:55:52;94323.22;;;17.80;27.97
22257;BME280;11297;42.686;23.374;2023-03-26T17:03:37;94332.56;;;17.78;27.73
22257;BME280;11297;42.686;23.374;2023-03-26T17:09:06;94332.59;;;17.81;28.44
22257;BME280;11297;42.686;23.374;2023-03-26T17:11:49;94335.31;;;17.92;28.00
22257;BME280;11297;42.686;23.374;2023-03-26T17:14:38;94328.25;;;17.96;27.98
22257;BME280;11297;42.686;23.374;2023-03-26T17:22:44;94333.84;;;17.94;27.46
22257;BME280;11297;42.686;23.374;2023-03-26T17:25:24;94338.41;;;17.97;27.19
22257;BME280;11297;42.686;23.374;2023-03-26T17:31:12;94365.25;;;19.03;64.74
22257;BME280;11297;42.686;23.374;2023-03-26T17:33:41;94352.63;;;19.36;53.67
22257;BME280;11297;42.686;23.374;2023-03-26T17:41:00;94334.69;;;19.62;34.56
22257;BME280;11297;42.686;23.374;2023-03-26T17:43:49;94342.25;;;19.70;35.75
22257;BME280;11297;42.686;23.374;2023-03-26T17:54:32;94342.44;;;20.57;44.61
22257;BME280;11297;42.686;23.374;2023-03-26T17:57:13;94329.63;;;20.87;42.64
22257;BME280;11297;42.686;23.374;2023-03-26T17:59:42;94327.28;;;21.27;36.91
22257;BME280;11297;42.686;23.374;2023-03-26T18:02:14;94318.63;;;21.12;36.09
22257;BME280;11297;42.686;23.374;2023-03-26T18:04:42;94337.09;;;21.30;34.45
22257;BME280;11297;42.686;23.374;2023-03-26T18:10:16;94331.81;;;20.02;30.93
22257;BME280;11297;42.686;23.374;2023-03-26T18:15:54;94337.16;;;18.67;31.74